Time;durP1;ratioP1;P1;durP2;ratioP2;P2;SDS_P1;SDS_P2;PMS_P1;PMS_P2;Temp;Humidity;BMP_temperature;BMP_pressure;BME280_temperature;BME280_humidity;BME280_pressure;Samples;Min_cycle;Max_cycle;Signal;HPM_P1;HPM_P2
2023/09/11 00:04:09;;;;;;;2.50;2.08;;;;;;;;;;10311309;28;20969;-79
2023/09/11 00:09:10;;;;;;;4.18;2.17;;;;;;;;;;10299800;28;20227;-79
2023/09/11 00:14:12;;;;;;;1.13;1.13;;;;;;;;;;10314900;28;20248;-77
2023/09/11 00:19:13;;;;;;;1.38;1.38;;;;;;;;;;10307184;28;20220;-79
2023/09/11 00:24:14;;;;;;;2.08;1.98;;;;;;;;;;10311523;28;20320;-79
2023/09/11 00:29:15;;;;;;;1.40;1.02;;;;;;;;;;10329675;28;20239;-78
2023/09/11 00:34:16;;;;;;;2.47;1.50;;;;;;;;;;10331014;28;20760;-79
2023/09/11 00:39:17;;;;;;;0.65;0.65;;;;;;;;;;10298633;28;20220;-79
2023/09/11 00:44:18;;;;;;;2.10;2.08;;;;;;;;;;10312710;28;20227;-78
2023/09/11 00:49:20;;;;;;;0.50;0.50;;;;;;;;;;10299478;28;20212;-79
2023/09/11 00:54:22;;;;;;;1.20;1.20;;;;;;;;;;10316902;28;20209;-78
2023/09/11 00:59:24;;;;;;;2.50;2.17;;;;;;;;;;10315221;28;20220;-79
2023/09/11 01:04:25;;;;;;;2.35;2.03;;;;;;;;;;10317168;28;20652;-78
2023/09/11 01:09:26;;;;;;;9.63;2.05;;;;;;;;;;10264175;28;20224;-78
2023/09/11 01:14:28;;;;;;;4.15;1.30;;;;;;;;;;10298068;28;20213;-77
2023/09/11 01:19:41;;;;;;;1.48;1.48;;;;;;;;;;10312497;28;20224;-79
2023/09/11 01:24:57;;;;;;;2.20;1.77;;;;;;;;;;10281796;28;20254;-79
2023/09/11 01:29:59;;;;;;;2.17;1.88;;;;;;;;;;10318484;28;20689;-79
2023/09/11 01:35:00;;;;;;;1.23;1.20;;;;;;;;;;10327200;28;20228;-78
2023/09/11 01:40:02;;;;;;;1.98;1.17;;;;;;;;;;10244527;28;20296;-77
2023/09/11 01:45:04;;;;;;;1.13;1.05;;;;;;;;;;10321891;28;20750;-79
2023/09/11 01:50:06;;;;;;;1.58;1.58;;;;;;;;;;10301905;28;20193;-78
2023/09/11 01:55:08;;;;;;;1.55;1.55;;;;;;;;;;10304057;28;20262;-79
2023/09/11 02:00:11;;;;;;;2.00;1.13;;;;;;;;;;10299099;28;20312;-76
2023/09/11 02:05:17;;;;;;;1.00;0.90;;;;;;;;;;10277350;28;20221;-79
2023/09/11 02:10:18;;;;;;;2.28;1.40;;;;;;;;;;10296647;28;20225;-77
2023/09/11 02:15:19;;;;;;;0.95;0.95;;;;;;;;;;10310185;28;23234;-80
2023/09/11 02:20:20;;;;;;;1.95;1.13;;;;;;;;;;10286038;28;20262;-77
2023/09/11 02:25:21;;;;;;;1.15;1.15;;;;;;;;;;10305998;28;20221;-77
2023/09/11 02:30:23;;;;;;;1.50;1.40;;;;;;;;;;10290507;28;20177;-78
2023/09/11 02:35:24;;;;;;;1.85;1.73;;;;;;;;;;10311147;28;20306;-77
2023/09/11 02:40:26;;;;;;;1.60;1.35;;;;;;;;;;10304740;28;20236;-78
2023/09/11 02:45:27;;;;;;;6.45;2.28;;;;;;;;;;10303178;28;20256;-78
2023/09/11 02:50:28;;;;;;;0.85;0.85;;;;;;;;;;10323862;28;21466;-79
2023/09/11 02:55:29;;;;;;;1.35;1.25;;;;;;;;;;10312738;28;20217;-79
2023/09/11 03:00:30;;;;;;;1.20;0.73;;;;;;;;;;10278901;28;20224;-77
2023/09/11 03:05:32;;;;;;;2.47;1.13;;;;;;;;;;10272557;28;20758;-76
2023/09/11 03:10:33;;;;;;;1.40;1.40;;;;;;;;;;10253724;28;20212;-79
2023/09/11 03:15:34;;;;;;;1.48;1.38;;;;;;;;;;10272913;28;20233;-78
2023/09/11 03:20:35;;;;;;;1.23;1.20;;;;;;;;;;10261307;28;20223;-80
2023/09/11 03:25:37;;;;;;;9.77;3.10;;;;;;;;;;10271076;28;20216;-78
2023/09/11 03:30:39;;;;;;;1.45;1.35;;;;;;;;;;10248992;28;20225;-80
2023/09/11 03:35:40;;;;;;;2.03;1.65;;;;;;;;;;10271690;28;20296;-79
2023/09/11 03:40:43;;;;;;;1.98;1.88;;;;;;;;;;10271403;28;20236;-80
2023/09/11 03:45:45;;;;;;;1.50;1.50;;;;;;;;;;10264470;28;20248;-79
2023/09/11 03:50:47;;;;;;;0.35;0.35;;;;;;;;;;10252449;28;20232;-78
2023/09/11 03:55:48;;;;;;;0.40;0.40;;;;;;;;;;10262659;28;20320;-78
2023/09/11 04:00:49;;;;;;;2.63;1.75;;;;;;;;;;10263323;28;20225;-79
2023/09/11 04:05:50;;;;;;;1.75;1.15;;;;;;;;;;10258592;28;20224;-79
2023/09/11 04:10:51;;;;;;;1.33;1.33;;;;;;;;;;10297711;28;20216;-78
2023/09/11 04:15:53;;;;;;;3.65;1.08;;;;;;;;;;10287094;28;20217;-77
2023/09/11 04:21:00;;;;;;;2.30;1.42;;;;;;;;;;10304075;28;20229;-76
2023/09/11 04:26:02;;;;;;;0.95;0.95;;;;;;;;;;10314498;28;20217;-76
2023/09/11 04:31:03;;;;;;;1.88;1.70;;;;;;;;;;10286705;28;20286;-77
2023/09/11 04:36:04;;;;;;;1.42;0.80;;;;;;;;;;10307961;28;20236;-79
2023/09/11 04:41:07;;;;;;;1.15;1.10;;;;;;;;;;10294516;28;20419;-76
2023/09/11 04:46:08;;;;;;;2.55;1.67;;;;;;;;;;10288433;28;20212;-76
2023/09/11 04:51:09;;;;;;;1.48;1.40;;;;;;;;;;10285077;28;20592;-75
2023/09/11 04:56:11;;;;;;;0.93;0.93;;;;;;;;;;10324145;28;20227;-76
2023/09/11 05:01:13;;;;;;;1.20;0.77;;;;;;;;;;10278926;28;20232;-77
2023/09/11 05:06:16;;;;;;;2.25;2.10;;;;;;;;;;10299839;28;20782;-78
2023/09/11 05:11:17;;;;;;;7.07;2.40;;;;;;;;;;10271400;28;20587;-77
2023/09/11 05:16:18;;;;;;;12.27;3.58;;;;;;;;;;10275696;28;20281;-76
2023/09/11 05:21:20;;;;;;;1.67;1.40;;;;;;;;;;10299302;28;20820;-79
2023/09/11 05:26:21;;;;;;;2.20;2.00;;;;;;;;;;10292668;28;20208;-80
2023/09/11 05:31:22;;;;;;;2.08;1.88;;;;;;;;;;10310065;28;20216;-78
2023/09/11 05:36:23;;;;;;;2.10;2.03;;;;;;;;;;10304717;28;20241;-81
2023/09/11 05:41:25;;;;;;;4.32;2.65;;;;;;;;;;10304560;28;20223;-77
2023/09/11 05:46:26;;;;;;;1.77;1.60;;;;;;;;;;10287850;28;24525;-78
2023/09/11 05:51:27;;;;;;;5.10;2.63;;;;;;;;;;10306992;28;20218;-80
2023/09/11 05:56:28;;;;;;;1.85;1.73;;;;;;;;;;10317926;28;21156;-79
2023/09/11 06:01:29;;;;;;;2.45;2.22;;;;;;;;;;10271614;28;20292;-78
2023/09/11 06:06:30;;;;;;;2.40;1.73;;;;;;;;;;10308649;28;20598;-78
2023/09/11 06:11:31;;;;;;;2.38;2.00;;;;;;;;;;10315188;28;20251;-78
2023/09/11 06:16:32;;;;;;;4.35;4.05;;;;;;;;;;10298748;28;20252;-81
2023/09/11 06:21:33;;;;;;;8.70;1.70;;;;;;;;;;10315458;28;20749;-78
2023/09/11 06:26:34;;;;;;;1.90;1.75;;;;;;;;;;10284202;28;21050;-79
2023/09/11 06:31:35;;;;;;;2.03;1.92;;;;;;;;;;10303918;28;20232;-78
2023/09/11 06:36:37;;;;;;;5.57;2.20;;;;;;;;;;10297996;28;20314;-80
2023/09/11 06:41:38;;;;;;;1.35;1.33;;;;;;;;;;10308176;28;20661;-81
2023/09/11 06:46:39;;;;;;;2.45;2.13;;;;;;;;;;10286749;28;20694;-79
2023/09/11 06:51:40;;;;;;;1.40;1.33;;;;;;;;;;10311219;28;20221;-80
2023/09/11 06:56:41;;;;;;;2.67;2.47;;;;;;;;;;10307110;28;20216;-81
2023/09/11 07:01:42;;;;;;;3.20;1.45;;;;;;;;;;10292703;28;20221;-81
2023/09/11 07:06:44;;;;;;;3.47;3.25;;;;;;;;;;10306965;28;20234;-80
2023/09/11 07:11:45;;;;;;;3.25;3.08;;;;;;;;;;10292486;28;21168;-82
2023/09/11 07:16:46;;;;;;;1.40;1.40;;;;;;;;;;10303168;28;20407;-80
2023/09/11 07:21:47;;;;;;;1.95;1.85;;;;;;;;;;10317302;28;20276;-80
2023/09/11 07:26:48;;;;;;;3.38;3.08;;;;;;;;;;10299151;28;20220;-81
2023/09/11 07:31:49;;;;;;;6.00;2.88;;;;;;;;;;10296125;28;20766;-82
2023/09/11 07:36:50;;;;;;;3.28;2.95;;;;;;;;;;10312058;28;20220;-82
2023/09/11 07:41:51;;;;;;;2.17;1.98;;;;;;;;;;10308096;28;20220;-84
2023/09/11 07:46:52;;;;;;;4.88;2.28;;;;;;;;;;10293206;28;20873;-80
2023/09/11 07:51:53;;;;;;;2.78;2.63;;;;;;;;;;10316798;28;20215;-80
2023/09/11 07:56:54;;;;;;;0.85;0.85;;;;;;;;;;10320947;28;20216;-79
2023/09/11 08:01:57;;;;;;;2.03;1.52;;;;;;;;;;10316417;28;20224;-83
2023/09/11 08:06:58;;;;;;;2.20;2.13;;;;;;;;;;10274356;28;20591;-79
2023/09/11 08:12:00;;;;;;;2.05;1.95;;;;;;;;;;10295034;28;20217;-82
2023/09/11 08:17:01;;;;;;;3.35;2.20;;;;;;;;;;10322762;28;20351;-82
2023/09/11 08:22:03;;;;;;;2.42;1.45;;;;;;;;;;10305865;28;20269;-82
2023/09/11 08:27:04;;;;;;;1.70;1.60;;;;;;;;;;10301783;28;20243;-83
2023/09/11 08:32:06;;;;;;;5.07;2.05;;;;;;;;;;10315249;28;20765;-83
2023/09/11 08:37:07;;;;;;;1.08;1.02;;;;;;;;;;10291303;28;20215;-83
2023/09/11 08:42:09;;;;;;;9.57;1.48;;;;;;;;;;10292182;28;20227;-86
2023/09/11 08:47:12;;;;;;;1.10;1.10;;;;;;;;;;10302387;28;20231;-82
2023/09/11 08:52:14;;;;;;;1.25;1.25;;;;;;;;;;10318353;28;20216;-82
2023/09/11 08:57:16;;;;;;;3.42;1.75;;;;;;;;;;10301046;28;20302;-82
2023/09/11 09:02:17;;;;;;;0.77;0.77;;;;;;;;;;10301507;28;20641;-83
2023/09/11 09:07:19;;;;;;;0.73;0.73;;;;;;;;;;10291444;28;20224;-84
2023/09/11 09:12:20;;;;;;;3.17;0.60;;;;;;;;;;10316816;28;20307;-83
2023/09/11 09:17:21;;;;;;;0.60;0.60;;;;;;;;;;10304665;28;20212;-84
2023/09/11 09:22:23;;;;;;;9.95;0.77;;;;;;;;;;10323595;28;20239;-82
2023/09/11 09:27:28;;;;;;;0.30;0.30;;;;;;;;;;10307110;28;20279;-83
2023/09/11 09:32:32;;;;;;;0.20;0.20;;;;;;;;;;10302972;28;20215;-84
2023/09/11 09:37:33;;;;;;;1.05;0.65;;;;;;;;;;10295371;28;20239;-83
2023/09/11 09:42:40;;;;;;;0.40;0.40;;;;;;;;;;10321452;28;20764;-82
2023/09/11 09:47:41;;;;;;;0.70;0.50;;;;;;;;;;10291511;28;20229;-81
2023/09/11 09:52:44;;;;;;;0.38;0.38;;;;;;;;;;10308850;28;20212;-84
2023/09/11 09:57:46;;;;;;;0.45;0.45;;;;;;;;;;10324334;28;20247;-84
2023/09/11 10:02:47;;;;;;;0.28;0.28;;;;;;;;;;10318598;28;20296;-82
2023/09/11 10:07:50;;;;;;;0.22;0.20;;;;;;;;;;10303910;28;20224;-81
2023/09/11 10:13:00;;;;;;;0.10;0.10;;;;;;;;;;10313950;28;20294;-82
2023/09/11 10:18:02;;;;;;;0.28;0.28;;;;;;;;;;10292221;28;20255;-83
2023/09/11 10:23:04;;;;;;;0.20;0.20;;;;;;;;;;10272109;28;20613;-86
2023/09/11 10:28:09;;;;;;;0.30;0.30;;;;;;;;;;10305751;28;20208;-82
2023/09/11 10:33:15;;;;;;;0.13;0.13;;;;;;;;;;10278907;28;20215;-82
2023/09/11 10:38:16;;;;;;;0.10;0.10;;;;;;;;;;10301440;28;20220;-84
2023/09/11 10:43:18;;;;;;;0.10;0.10;;;;;;;;;;10311497;28;20824;-82
2023/09/11 10:48:26;;;;;;;0.20;0.20;;;;;;;;;;10298037;28;20220;-82
2023/09/11 10:53:30;;;;;;;0.32;0.32;;;;;;;;;;10302229;28;20212;-82
2023/09/11 10:58:31;;;;;;;0.35;0.35;;;;;;;;;;10312241;28;20232;-81
2023/09/11 11:03:35;;;;;;;0.13;0.13;;;;;;;;;;10305705;28;20208;-81
2023/09/11 11:08:37;;;;;;;0.08;0.08;;;;;;;;;;10302688;28;20395;-81
2023/09/11 11:13:38;;;;;;;1.60;0.50;;;;;;;;;;10322869;28;20318;-81
2023/09/11 11:18:39;;;;;;;0.30;0.30;;;;;;;;;;10294906;28;20986;-81
2023/09/11 11:24:00;;;;;;;0.25;0.25;;;;;;;;;;10313968;28;20657;-83
2023/09/11 11:29:01;;;;;;;0.10;0.10;;;;;;;;;;10304916;28;20217;-81
2023/09/11 11:34:03;;;;;;;0.20;0.20;;;;;;;;;;10320674;28;20316;-81
2023/09/11 11:39:04;;;;;;;0.20;0.20;;;;;;;;;;10294839;28;20225;-80
2023/09/11 11:44:05;;;;;;;0.05;0.05;;;;;;;;;;10307169;28;20242;-82
2023/09/11 11:49:06;;;;;;;0.10;0.10;;;;;;;;;;10303506;28;20228;-80
2023/09/11 11:54:07;;;;;;;0.10;0.10;;;;;;;;;;10322031;28;20216;-82
2023/09/11 11:59:08;;;;;;;0.10;0.10;;;;;;;;;;10306239;28;20223;-81
2023/09/11 12:04:09;;;;;;;0.00;0.00;;;;;;;;;;10345367;28;20220;-82
2023/09/11 12:09:10;;;;;;;0.10;0.10;;;;;;;;;;10319656;28;20997;-82
2023/09/11 12:14:12;;;;;;;0.10;0.10;;;;;;;;;;10277050;28;20220;-84
2023/09/11 12:19:13;;;;;;;0.00;0.00;;;;;;;;;;10335970;28;20228;-81
2023/09/11 12:24:23;;;;;;;0.00;0.00;;;;;;;;;;10298453;28;20220;-81
2023/09/11 12:29:26;;;;;;;0.43;0.38;;;;;;;;;;10316818;28;20218;-84
2023/09/11 12:34:41;;;;;;;0.10;0.10;;;;;;;;;;10324107;28;20590;-82
2023/09/11 12:39:43;;;;;;;0.10;0.10;;;;;;;;;;10292454;28;20211;-84
2023/09/11 12:44:44;;;;;;;0.10;0.10;;;;;;;;;;10297035;28;20215;-81
2023/09/11 12:49:45;;;;;;;0.03;0.03;;;;;;;;;;10330655;28;20539;-82
2023/09/11 12:54:46;;;;;;;0.10;0.10;;;;;;;;;;10330598;28;20216;-82
2023/09/11 12:59:47;;;;;;;0.10;0.10;;;;;;;;;;10336467;28;20810;-82
2023/09/11 13:04:48;;;;;;;0.10;0.10;;;;;;;;;;10300214;28;20224;-82
2023/09/11 13:09:49;;;;;;;0.20;0.20;;;;;;;;;;10278274;28;20275;-81
2023/09/11 13:14:50;;;;;;;0.00;0.00;;;;;;;;;;10269437;28;20225;-81
2023/09/11 13:19:51;;;;;;;0.10;0.10;;;;;;;;;;10257304;28;20225;-81
2023/09/11 13:24:53;;;;;;;0.10;0.10;;;;;;;;;;10284020;28;20228;-82
2023/09/11 13:29:54;;;;;;;0.17;0.17;;;;;;;;;;10263970;28;20225;-79
2023/09/11 13:34:55;;;;;;;0.20;0.20;;;;;;;;;;10261896;28;20232;-81
2023/09/11 13:39:56;;;;;;;0.10;0.10;;;;;;;;;;10250900;28;20227;-82
2023/09/11 13:44:57;;;;;;;0.20;0.20;;;;;;;;;;10268306;28;21027;-81
2023/09/11 13:49:58;;;;;;;0.20;0.20;;;;;;;;;;10272191;28;20216;-80
2023/09/11 13:54:59;;;;;;;0.10;0.10;;;;;;;;;;10288511;28;20217;-83
2023/09/11 14:00:00;;;;;;;0.10;0.10;;;;;;;;;;10264898;28;20220;-82
2023/09/11 14:05:01;;;;;;;0.20;0.20;;;;;;;;;;10272237;28;20324;-82
2023/09/11 14:10:03;;;;;;;0.10;0.10;;;;;;;;;;10306179;28;20204;-83
2023/09/11 14:15:05;;;;;;;0.10;0.10;;;;;;;;;;10305936;28;20228;-82
2023/09/11 14:20:10;;;;;;;0.10;0.10;;;;;;;;;;10289604;28;20220;-82
2023/09/11 14:25:11;;;;;;;0.20;0.20;;;;;;;;;;10305967;28;20736;-84
2023/09/11 14:30:13;;;;;;;0.32;0.13;;;;;;;;;;10314761;28;20240;-82
2023/09/11 14:35:14;;;;;;;0.10;0.10;;;;;;;;;;10310057;28;20670;-83
2023/09/11 14:40:15;;;;;;;0.00;0.00;;;;;;;;;;10316687;28;20220;-81
2023/09/11 14:45:16;;;;;;;0.10;0.10;;;;;;;;;;10338151;28;20327;-84
2023/09/11 14:50:17;;;;;;;0.10;0.10;;;;;;;;;;10301737;28;20725;-84
2023/09/11 14:55:18;;;;;;;0.30;0.30;;;;;;;;;;10304432;28;20695;-84
2023/09/11 15:00:19;;;;;;;0.10;0.10;;;;;;;;;;10325468;28;20605;-83
2023/09/11 15:05:21;;;;;;;0.10;0.10;;;;;;;;;;10325676;28;20547;-84
2023/09/11 15:10:22;;;;;;;0.30;0.30;;;;;;;;;;10323046;28;20189;-82
2023/09/11 15:15:23;;;;;;;0.00;0.00;;;;;;;;;;10298102;28;20224;-82
2023/09/11 15:20:24;;;;;;;0.10;0.10;;;;;;;;;;10310384;28;20252;-82
2023/09/11 15:25:25;;;;;;;0.10;0.10;;;;;;;;;;10302384;28;20817;-81
2023/09/11 15:30:26;;;;;;;0.10;0.10;;;;;;;;;;10308225;28;20216;-82
2023/09/11 15:35:27;;;;;;;0.35;0.10;;;;;;;;;;10328974;28;20805;-80
2023/09/11 15:40:29;;;;;;;0.10;0.10;;;;;;;;;;10305520;28;20234;-83
2023/09/11 15:45:31;;;;;;;0.08;0.08;;;;;;;;;;10300929;28;20724;-82
2023/09/11 15:50:32;;;;;;;0.00;0.00;;;;;;;;;;10308113;28;20215;-82
2023/09/11 15:55:35;;;;;;;0.00;0.00;;;;;;;;;;10309679;28;20213;-83
2023/09/11 16:00:36;;;;;;;0.10;0.10;;;;;;;;;;10316955;28;20233;-82
2023/09/11 16:05:39;;;;;;;0.10;0.10;;;;;;;;;;10316604;28;20221;-81
2023/09/11 16:10:40;;;;;;;0.10;0.10;;;;;;;;;;10260959;28;20220;-83
2023/09/11 16:15:41;;;;;;;0.10;0.10;;;;;;;;;;10251675;28;20226;-80
2023/09/11 16:20:42;;;;;;;0.10;0.10;;;;;;;;;;10250328;28;20336;-82
2023/09/11 16:25:43;;;;;;;0.10;0.10;;;;;;;;;;10294011;28;20232;-81
2023/09/11 16:30:44;;;;;;;0.20;0.20;;;;;;;;;;10275707;28;20823;-81
2023/09/11 16:35:45;;;;;;;0.10;0.10;;;;;;;;;;10260816;28;20225;-84
2023/09/11 16:40:46;;;;;;;0.05;0.05;;;;;;;;;;10280612;28;20682;-82
2023/09/11 16:45:49;;;;;;;0.13;0.13;;;;;;;;;;10246976;28;20225;-80
2023/09/11 16:50:50;;;;;;;0.00;0.00;;;;;;;;;;10252792;28;20733;-82
2023/09/11 16:55:52;;;;;;;0.20;0.20;;;;;;;;;;10265284;28;20216;-80
2023/09/11 17:00:54;;;;;;;0.10;0.10;;;;;;;;;;10293220;28;20746;-79
2023/09/11 17:05:55;;;;;;;0.17;0.17;;;;;;;;;;10304349;28;20375;-80
2023/09/11 17:10:57;;;;;;;0.08;0.08;;;;;;;;;;10328215;28;20299;-81
2023/09/11 17:15:58;;;;;;;0.00;0.00;;;;;;;;;;10322480;28;20302;-80
2023/09/11 17:21:04;;;;;;;0.10;0.10;;;;;;;;;;10289498;28;20830;-81
2023/09/11 17:26:05;;;;;;;0.00;0.00;;;;;;;;;;10301948;28;20293;-76
2023/09/11 17:31:06;;;;;;;0.00;0.00;;;;;;;;;;10309096;28;20209;-80
2023/09/11 17:36:08;;;;;;;0.00;0.00;;;;;;;;;;10282729;28;20227;-81
2023/09/11 17:41:09;;;;;;;0.20;0.20;;;;;;;;;;10282994;28;20259;-79
2023/09/11 17:46:14;;;;;;;0.32;0.22;;;;;;;;;;10336122;28;20219;-80
2023/09/11 17:51:16;;;;;;;0.55;0.20;;;;;;;;;;10311300;28;20231;-80
2023/09/11 17:56:17;;;;;;;0.40;0.22;;;;;;;;;;10303251;28;20625;-82
2023/09/11 18:01:18;;;;;;;0.40;0.25;;;;;;;;;;10293901;28;20255;-81
2023/09/11 18:06:19;;;;;;;0.10;0.10;;;;;;;;;;10305181;28;20231;-80
2023/09/11 18:11:21;;;;;;;0.50;0.50;;;;;;;;;;10314004;28;20596;-82
2023/09/11 18:16:22;;;;;;;0.20;0.20;;;;;;;;;;10309225;28;20230;-80
2023/09/11 18:21:23;;;;;;;0.40;0.40;;;;;;;;;;10283791;28;20231;-82
2023/09/11 18:26:24;;;;;;;0.13;0.13;;;;;;;;;;10311518;28;20225;-82
2023/09/11 18:31:25;;;;;;;0.60;0.10;;;;;;;;;;10309320;28;20227;-82
2023/09/11 18:36:26;;;;;;;0.10;0.10;;;;;;;;;;10312733;28;20228;-81
2023/09/11 18:41:27;;;;;;;0.85;0.30;;;;;;;;;;10317195;28;20224;-81
2023/09/11 18:46:28;;;;;;;0.20;0.20;;;;;;;;;;10298066;28;20216;-83
2023/09/11 18:51:29;;;;;;;0.13;0.13;;;;;;;;;;10311194;28;20656;-80
2023/09/11 18:56:31;;;;;;;0.88;0.30;;;;;;;;;;10311873;28;20221;-82
2023/09/11 19:01:32;;;;;;;0.30;0.30;;;;;;;;;;10308272;28;20264;-80
2023/09/11 19:06:33;;;;;;;0.10;0.10;;;;;;;;;;10297275;28;20255;-82
2023/09/11 19:11:34;;;;;;;0.20;0.13;;;;;;;;;;10325791;28;20215;-80
2023/09/11 19:16:35;;;;;;;1.17;0.30;;;;;;;;;;10305379;28;20220;-80
2023/09/11 19:21:36;;;;;;;9.32;0.43;;;;;;;;;;10308292;28;20235;-80
2023/09/11 19:26:37;;;;;;;21.15;0.75;;;;;;;;;;10322612;28;20220;-78
2023/09/11 19:31:38;;;;;;;0.80;0.60;;;;;;;;;;10279954;28;20694;-79
2023/09/11 19:36:39;;;;;;;0.40;0.32;;;;;;;;;;10291547;28;21047;-78
2023/09/11 19:41:42;;;;;;;0.63;0.63;;;;;;;;;;10302712;28;20223;-80
2023/09/11 19:46:43;;;;;;;0.20;0.20;;;;;;;;;;10323620;28;20271;-82
2023/09/11 19:51:44;;;;;;;1.23;0.30;;;;;;;;;;10317145;28;20209;-81
2023/09/11 19:56:45;;;;;;;0.20;0.10;;;;;;;;;;10326021;28;20260;-78
2023/09/11 20:01:46;;;;;;;0.52;0.52;;;;;;;;;;10310141;28;20255;-80
2023/09/11 20:06:47;;;;;;;0.63;0.63;;;;;;;;;;10296666;28;20824;-80
2023/09/11 20:11:48;;;;;;;0.50;0.32;;;;;;;;;;10309117;28;20216;-79
2023/09/11 20:16:49;;;;;;;2.38;0.52;;;;;;;;;;10295428;28;20220;-78
2023/09/11 20:21:50;;;;;;;0.60;0.60;;;;;;;;;;10301588;28;20315;-79
2023/09/11 20:26:51;;;;;;;0.20;0.20;;;;;;;;;;10329992;28;20706;-78
2023/09/11 20:31:52;;;;;;;0.22;0.22;;;;;;;;;;10331925;28;20217;-80
2023/09/11 20:36:53;;;;;;;4.43;1.35;;;;;;;;;;10318188;28;20227;-78
2023/09/11 20:41:55;;;;;;;1.77;0.52;;;;;;;;;;10317630;28;20220;-80
2023/09/11 20:46:56;;;;;;;0.63;0.20;;;;;;;;;;10314408;28;20227;-81
2023/09/11 20:51:57;;;;;;;2.58;0.43;;;;;;;;;;10329539;28;20223;-82
2023/09/11 20:56:58;;;;;;;0.63;0.22;;;;;;;;;;10311190;28;20230;-78
2023/09/11 21:01:59;;;;;;;0.55;0.55;;;;;;;;;;10327791;28;20235;-80
2023/09/11 21:07:00;;;;;;;2.92;1.67;;;;;;;;;;10326162;28;20235;-82
2023/09/11 21:12:01;;;;;;;0.20;0.20;;;;;;;;;;10332293;28;20211;-80
2023/09/11 21:17:02;;;;;;;1.70;0.52;;;;;;;;;;10313857;28;20829;-81
2023/09/11 21:22:03;;;;;;;1.17;0.30;;;;;;;;;;10328102;28;20238;-81
2023/09/11 21:27:04;;;;;;;1.90;0.63;;;;;;;;;;10327915;28;20999;-78
2023/09/11 21:32:05;;;;;;;27.45;0.65;;;;;;;;;;10312792;28;20222;-78
2023/09/11 21:37:06;;;;;;;0.47;0.47;;;;;;;;;;10311648;28;20237;-81
2023/09/11 21:42:07;;;;;;;0.40;0.40;;;;;;;;;;10293129;28;20289;-77
2023/09/11 21:47:08;;;;;;;3.35;0.50;;;;;;;;;;10296396;28;20227;-79
2023/09/11 21:52:10;;;;;;;0.20;0.20;;;;;;;;;;10307204;28;20240;-78
2023/09/11 21:57:11;;;;;;;0.85;0.85;;;;;;;;;;10290835;28;20216;-81
2023/09/11 22:02:12;;;;;;;2.53;0.50;;;;;;;;;;10307802;28;20289;-78
2023/09/11 22:07:13;;;;;;;15.52;1.00;;;;;;;;;;10304276;28;20224;-78
2023/09/11 22:12:14;;;;;;;0.80;0.60;;;;;;;;;;10306402;28;20267;-79
2023/09/11 22:17:16;;;;;;;0.40;0.40;;;;;;;;;;10293208;28;20623;-78
2023/09/11 22:22:17;;;;;;;0.63;0.63;;;;;;;;;;10292237;28;20232;-80
2023/09/11 22:27:18;;;;;;;0.47;0.47;;;;;;;;;;10333323;28;20861;-80
2023/09/11 22:32:19;;;;;;;0.40;0.40;;;;;;;;;;10326089;28;20212;-79
2023/09/11 22:37:20;;;;;;;0.10;0.10;;;;;;;;;;10297785;28;20220;-79
2023/09/11 22:42:21;;;;;;;0.47;0.47;;;;;;;;;;10309248;28;20673;-81
2023/09/11 22:47:22;;;;;;;0.50;0.38;;;;;;;;;;10322144;28;20222;-80
2023/09/11 22:52:23;;;;;;;0.70;0.70;;;;;;;;;;10338280;28;20343;-81
2023/09/11 22:57:24;;;;;;;1.75;0.90;;;;;;;;;;10312355;28;20220;-83
2023/09/11 23:02:25;;;;;;;2.88;0.93;;;;;;;;;;10348437;28;20256;-80
2023/09/11 23:07:27;;;;;;;0.80;0.80;;;;;;;;;;10293971;28;20302;-79
2023/09/11 23:12:28;;;;;;;0.17;0.17;;;;;;;;;;10294611;28;20220;-81
2023/09/11 23:17:29;;;;;;;9.43;1.20;;;;;;;;;;10295118;28;20279;-82
2023/09/11 23:22:30;;;;;;;2.17;0.80;;;;;;;;;;10308648;28;20221;-79
2023/09/11 23:27:31;;;;;;;0.25;0.25;;;;;;;;;;10301402;28;20213;-81
2023/09/11 23:32:32;;;;;;;0.15;0.15;;;;;;;;;;10319208;28;20763;-81
2023/09/11 23:37:33;;;;;;;1.30;1.08;;;;;;;;;;10290533;28;20355;-81
2023/09/11 23:42:34;;;;;;;0.77;0.60;;;;;;;;;;10292914;28;20307;-78
2023/09/11 23:47:35;;;;;;;1.85;0.38;;;;;;;;;;10291487;28;20275;-79
2023/09/11 23:52:36;;;;;;;0.25;0.25;;;;;;;;;;10276606;28;20216;-80
2023/09/11 23:57:37;;;;;;;1.50;0.25;;;;;;;;;;10305472;28;20755;-79
